Time;durP1;ratioP1;P1;durP2;ratioP2;P2;SDS_P1;SDS_P2;PMS_P1;PMS_P2;Temp;Humidity;BMP_temperature;BMP_pressure;BME280_temperature;BME280_humidity;BME280_pressure;Samples;Min_cycle;Max_cycle;Signal;HPM_P1;HPM_P2
2021/03/05 00:00:29;;;;;;;4.13;1.80;;;8.10;98.00;;;;;;5051567;28;20493;-76
2021/03/05 00:02:56;;;;;;;5.17;1.57;;;8.20;98.00;;;;;;5053904;28;20543;-76
2021/03/05 00:05:22;;;;;;;1.20;1.10;;;8.10;98.00;;;;;;5051408;28;20468;-76
2021/03/05 00:07:49;;;;;;;1.30;1.20;;;8.20;98.00;;;;;;5053704;28;20541;-76
2021/03/05 00:10:18;;;;;;;1.20;1.00;;;8.20;98.00;;;;;;5051478;28;20468;-76
2021/03/05 00:12:45;;;;;;;1.50;1.47;;;8.30;98.00;;;;;;5053838;28;20462;-76
2021/03/05 00:15:13;;;;;;;1.20;0.97;;;8.30;98.00;;;;;;5051228;28;20498;-76
2021/03/05 00:17:39;;;;;;;1.53;1.23;;;8.50;98.00;;;;;;5053901;28;20460;-76
2021/03/05 00:20:09;;;;;;;2.90;1.30;;;8.60;98.00;;;;;;5051665;28;20459;-76
2021/03/05 00:22:36;;;;;;;2.30;1.63;;;8.50;98.00;;;;;;5053650;28;20490;-76
2021/03/05 00:25:03;;;;;;;1.50;1.20;;;8.50;98.00;;;;;;5051155;28;20465;-76
2021/03/05 00:27:29;;;;;;;1.37;1.27;;;8.40;98.00;;;;;;5052813;28;20460;-75
2021/03/05 00:29:56;;;;;;;5.93;2.87;;;8.40;98.00;;;;;;5051200;28;20526;-75
2021/03/05 00:32:23;;;;;;;1.20;1.10;;;8.30;98.00;;;;;;5053714;28;20463;-75
2021/03/05 00:34:50;;;;;;;1.53;1.43;;;8.30;98.00;;;;;;5051142;28;20455;-76
2021/03/05 00:37:17;;;;;;;1.20;1.13;;;8.30;98.00;;;;;;5053510;28;20487;-76
2021/03/05 00:39:43;;;;;;;2.40;1.27;;;8.20;98.00;;;;;;5050916;28;20458;-76
2021/03/05 00:42:10;;;;;;;3.10;1.20;;;8.20;98.00;;;;;;5053331;28;20485;-76
2021/03/05 00:44:37;;;;;;;1.30;1.30;;;8.10;98.00;;;;;;5050649;28;20495;-76
2021/03/05 00:47:04;;;;;;;2.47;1.60;;;8.20;98.00;;;;;;5053119;28;20458;-76
2021/03/05 00:49:31;;;;;;;1.70;1.00;;;8.20;98.00;;;;;;5049246;28;20523;-76
2021/03/05 00:51:58;;;;;;;2.67;1.43;;;8.10;98.00;;;;;;5053152;28;20490;-76
2021/03/05 00:54:25;;;;;;;2.40;2.17;;;8.10;98.00;;;;;;5050331;28;20465;-76
2021/03/05 00:56:51;;;;;;;1.20;1.07;;;8.20;98.00;;;;;;5053014;28;20852;-76
2021/03/05 00:59:18;;;;;;;1.70;1.33;;;8.30;98.00;;;;;;5048071;28;20455;-76
2021/03/05 01:01:44;;;;;;;2.37;2.27;;;8.30;98.00;;;;;;5052702;28;20491;-76
2021/03/05 01:04:11;;;;;;;1.53;1.53;;;8.30;98.00;;;;;;5050489;28;20463;-76
2021/03/05 01:06:38;;;;;;;1.30;1.20;;;8.30;98.00;;;;;;5052840;28;20521;-76
2021/03/05 01:09:05;;;;;;;3.77;2.30;;;8.30;98.00;;;;;;5032126;28;21066;-76
2021/03/05 01:11:32;;;;;;;1.70;1.47;;;8.40;98.00;;;;;;5052772;28;20498;-75
2021/03/05 01:13:59;;;;;;;2.07;1.80;;;8.30;98.00;;;;;;5050557;28;20583;-75
2021/03/05 01:16:25;;;;;;;1.90;1.80;;;8.20;98.00;;;;;;5052664;28;20967;-75
2021/03/05 01:18:52;;;;;;;1.70;1.40;;;8.00;98.00;;;;;;5050355;28;20462;-75
2021/03/05 01:21:19;;;;;;;2.33;1.40;;;7.90;98.00;;;;;;5052760;28;20462;-75
2021/03/05 01:23:46;;;;;;;1.70;1.47;;;7.70;98.00;;;;;;5050377;28;20537;-75
2021/03/05 01:26:13;;;;;;;2.50;1.63;;;7.60;98.00;;;;;;5052639;28;20564;-75
2021/03/05 01:28:45;;;;;;;3.00;1.87;;;7.50;98.00;;;;;;5050225;28;20552;-75
2021/03/05 01:31:11;;;;;;;1.40;1.30;;;7.10;98.00;;;;;;5052506;28;20958;-75
2021/03/05 01:33:38;;;;;;;2.13;1.97;;;6.80;98.00;;;;;;5049905;28;20451;-75
2021/03/05 01:36:08;;;;;;;2.57;1.40;;;6.80;98.00;;;;;;5052308;28;20524;-74
2021/03/05 01:38:35;;;;;;;1.83;1.83;;;6.80;98.00;;;;;;5049505;28;20944;-75
2021/03/05 01:41:03;;;;;;;1.40;1.40;;;6.60;98.00;;;;;;5052212;28;20467;-75
2021/03/05 01:43:32;;;;;;;1.70;1.20;;;6.50;98.00;;;;;;5051574;28;20495;-75
2021/03/05 01:45:59;;;;;;;1.63;1.30;;;6.40;98.00;;;;;;5051313;28;20481;-75
2021/03/05 01:48:27;;;;;;;1.87;1.30;;;6.30;98.00;;;;;;5051872;28;20484;-75
2021/03/05 01:51:00;;;;;;;3.37;1.67;;;6.20;98.00;;;;;;5049346;28;20514;-75
2021/03/05 01:53:28;;;;;;;1.20;1.00;;;6.20;98.00;;;;;;5051392;28;20470;-75
2021/03/05 01:55:54;;;;;;;1.50;1.30;;;6.20;98.00;;;;;;5049400;28;20461;-75
2021/03/05 01:58:22;;;;;;;1.40;1.17;;;6.30;98.00;;;;;;5050578;28;21083;-75
2021/03/05 02:00:51;;;;;;;1.60;1.37;;;6.00;98.00;;;;;;5049460;28;20493;-75
2021/03/05 02:03:18;;;;;;;1.40;1.30;;;5.70;98.00;;;;;;5051547;28;20463;-75
2021/03/05 02:05:47;;;;;;;1.30;1.17;;;5.70;98.00;;;;;;5049216;28;20451;-75
2021/03/05 02:08:14;;;;;;;1.30;1.10;;;5.70;98.00;;;;;;5051431;28;20575;-75
2021/03/05 02:10:43;;;;;;;1.20;1.20;;;5.40;98.00;;;;;;5048925;28;20501;-74
2021/03/05 02:13:10;;;;;;;3.33;2.40;;;5.30;98.00;;;;;;5050779;28;20460;-75
2021/03/05 02:15:39;;;;;;;2.30;2.13;;;5.30;98.00;;;;;;5049253;28;20850;-75
2021/03/05 02:18:15;;;;;;;2.23;1.77;;;5.30;98.00;;;;;;5051539;28;20477;-75
2021/03/05 02:21:07;;;;;;;2.50;1.37;;;5.30;98.00;;;;;;5049326;28;20501;-75
2021/03/05 02:23:48;;;;;;;1.20;1.03;;;5.30;98.00;;;;;;5050967;28;20886;-74
2021/03/05 02:26:53;;;;;;;1.20;1.10;;;5.30;98.00;;;;;;5051586;28;20487;-75
2021/03/05 02:29:54;;;;;;;1.93;1.30;;;5.20;98.00;;;;;;5049043;28;20536;-75
2021/03/05 02:32:29;;;;;;;1.20;1.07;;;5.20;98.00;;;;;;5051391;28;20457;-75
2021/03/05 02:34:57;;;;;;;1.20;1.20;;;5.10;98.00;;;;;;5048826;28;20454;-75
2021/03/05 02:37:26;;;;;;;2.00;1.60;;;5.30;98.00;;;;;;5051275;28;20503;-75
2021/03/05 02:39:58;;;;;;;1.50;1.40;;;5.20;98.00;;;;;;5048902;28;20937;-75
2021/03/05 02:42:28;;;;;;;1.20;1.07;;;5.30;98.00;;;;;;5051261;28;20458;-75
2021/03/05 02:44:59;;;;;;;3.00;1.53;;;5.10;98.00;;;;;;5048667;28;20459;-75
2021/03/05 02:47:29;;;;;;;2.13;1.50;;;5.00;98.00;;;;;;5050951;28;20515;-75
2021/03/05 02:49:56;;;;;;;1.77;1.70;;;5.00;98.00;;;;;;5048465;28;20525;-75
2021/03/05 02:52:24;;;;;;;1.83;1.80;;;4.90;98.00;;;;;;5051010;28;20465;-75
2021/03/05 02:54:55;;;;;;;1.30;1.13;;;4.90;98.00;;;;;;5048371;28;20493;-75
2021/03/05 02:57:26;;;;;;;1.40;1.10;;;4.90;98.00;;;;;;5051153;28;20462;-75
2021/03/05 02:59:55;;;;;;;1.57;1.30;;;5.00;98.00;;;;;;5048422;28;21030;-74
2021/03/05 03:02:24;;;;;;;3.30;1.50;;;5.00;98.00;;;;;;5050518;28;20477;-75
2021/03/05 03:04:54;;;;;;;2.63;1.33;;;4.90;98.00;;;;;;5048355;28;20968;-75
2021/03/05 03:07:21;;;;;;;1.40;1.40;;;5.00;98.00;;;;;;5050926;28;20490;-75
2021/03/05 03:09:49;;;;;;;4.80;1.60;;;5.10;98.00;;;;;;5048653;28;20522;-75
2021/03/05 03:12:17;;;;;;;1.20;1.17;;;5.30;98.00;;;;;;5051015;28;20461;-75
2021/03/05 03:14:46;;;;;;;1.40;1.40;;;5.20;98.00;;;;;;5048397;28;20502;-75
2021/03/05 03:17:14;;;;;;;2.17;1.80;;;5.20;98.00;;;;;;5049602;28;20800;-75
2021/03/05 03:19:47;;;;;;;2.27;2.07;;;5.30;98.00;;;;;;5047147;28;20551;-74
2021/03/05 03:22:14;;;;;;;1.20;1.07;;;5.30;98.00;;;;;;5050587;28;20467;-75
2021/03/05 03:24:42;;;;;;;2.07;1.83;;;5.40;98.00;;;;;;5052625;28;20508;-75
2021/03/05 03:27:09;;;;;;;2.27;1.50;;;5.30;98.00;;;;;;5054662;28;20473;-75
2021/03/05 03:29:36;;;;;;;1.30;1.20;;;5.20;98.00;;;;;;5052220;28;20485;-75
2021/03/05 03:32:03;;;;;;;1.87;1.87;;;5.20;98.00;;;;;;5036767;28;20460;-75
2021/03/05 03:34:30;;;;;;;1.33;1.27;;;5.10;98.00;;;;;;5052129;28;20512;-75
2021/03/05 03:36:57;;;;;;;2.70;1.30;;;5.00;98.00;;;;;;5053051;28;20458;-75
2021/03/05 03:39:26;;;;;;;1.20;1.17;;;4.90;98.00;;;;;;5051950;28;20461;-75
2021/03/05 03:41:54;;;;;;;1.20;1.10;;;4.90;98.00;;;;;;5035984;28;20523;-74
2021/03/05 03:44:20;;;;;;;2.07;1.20;;;4.90;98.00;;;;;;5050568;28;20467;-75
2021/03/05 03:46:48;;;;;;;3.50;1.63;;;4.80;98.00;;;;;;5054170;28;20461;-75
2021/03/05 03:49:19;;;;;;;1.60;1.53;;;4.80;98.00;;;;;;5051895;28;21033;-75
2021/03/05 03:51:53;;;;;;;2.60;1.40;;;4.90;98.00;;;;;;5053936;28;20453;-74
2021/03/05 03:54:30;;;;;;;2.57;1.60;;;4.90;98.00;;;;;;5051302;28;21077;-75
2021/03/05 03:57:02;;;;;;;1.20;1.00;;;4.90;98.00;;;;;;5053167;28;20493;-74
2021/03/05 03:59:33;;;;;;;2.00;1.53;;;4.90;98.00;;;;;;5051894;28;20587;-75
2021/03/05 04:02:01;;;;;;;1.30;1.20;;;4.90;98.00;;;;;;5054209;28;20457;-75
2021/03/05 04:04:32;;;;;;;1.30;1.20;;;4.90;98.00;;;;;;5051612;28;20485;-75
2021/03/05 04:07:01;;;;;;;1.70;1.67;;;4.80;98.00;;;;;;5054056;28;20491;-75
2021/03/05 04:09:31;;;;;;;1.60;1.30;;;4.80;98.00;;;;;;5051320;28;20520;-74
2021/03/05 04:12:00;;;;;;;1.20;1.10;;;4.70;98.00;;;;;;5053875;28;21009;-74
2021/03/05 04:14:27;;;;;;;2.03;1.90;;;4.70;98.00;;;;;;5051355;28;20449;-74
2021/03/05 04:16:54;;;;;;;1.50;1.13;;;4.70;98.00;;;;;;5053793;28;21015;-75
2021/03/05 04:19:23;;;;;;;1.53;1.47;;;4.70;98.00;;;;;;5051285;28;20467;-74
2021/03/05 04:21:50;;;;;;;1.20;1.00;;;4.70;98.00;;;;;;5053531;28;20846;-75
2021/03/05 04:24:18;;;;;;;1.20;1.00;;;4.80;98.00;;;;;;5051272;28;20488;-75
2021/03/05 04:26:46;;;;;;;1.40;1.20;;;4.90;98.00;;;;;;5053642;28;20486;-75
2021/03/05 04:29:16;;;;;;;1.40;1.30;;;4.80;98.00;;;;;;5050946;28;20573;-75
2021/03/05 04:31:43;;;;;;;1.53;1.50;;;5.00;98.00;;;;;;5052219;28;20517;-75
2021/03/05 04:34:11;;;;;;;2.03;1.57;;;5.00;98.00;;;;;;5050783;28;20462;-75
2021/03/05 04:36:38;;;;;;;1.63;1.60;;;4.90;98.00;;;;;;5053315;28;20459;-75
2021/03/05 04:39:07;;;;;;;1.63;1.57;;;4.80;98.00;;;;;;5050835;28;20500;-75
2021/03/05 04:41:33;;;;;;;1.20;1.00;;;4.90;98.00;;;;;;5053260;28;20538;-75
2021/03/05 04:44:25;;;;;;;1.70;1.20;;;5.00;98.00;;;;;;5050717;28;20559;-75
2021/03/05 04:46:52;;;;;;;2.53;1.93;;;4.90;98.00;;;;;;5053029;28;20462;-75
2021/03/05 04:49:25;;;;;;;1.50;1.50;;;4.80;98.00;;;;;;5050386;28;20487;-75
2021/03/05 04:51:51;;;;;;;2.80;1.10;;;4.80;98.00;;;;;;5053378;28;20461;-75
2021/03/05 04:54:18;;;;;;;3.13;1.90;;;4.90;98.00;;;;;;5050507;28;20477;-75
2021/03/05 04:56:44;;;;;;;1.20;1.10;;;4.80;98.00;;;;;;5052076;28;20505;-75
2021/03/05 04:59:11;;;;;;;1.97;1.73;;;4.90;98.00;;;;;;5050841;28;20494;-75
2021/03/05 05:01:38;;;;;;;1.20;0.90;;;5.00;98.00;;;;;;5053174;28;20459;-75
2021/03/05 05:04:05;;;;;;;1.20;1.10;;;5.00;98.00;;;;;;5050327;28;20501;-75
2021/03/05 05:06:32;;;;;;;1.40;1.30;;;5.10;98.00;;;;;;5052909;28;20490;-75
2021/03/05 05:08:58;;;;;;;2.03;1.27;;;5.20;98.00;;;;;;5050423;28;20489;-75
2021/03/05 05:11:25;;;;;;;1.20;1.00;;;5.40;98.00;;;;;;5052747;28;20462;-75
2021/03/05 05:13:53;;;;;;;1.23;1.10;;;5.40;98.00;;;;;;5052319;28;20929;-75
2021/03/05 05:16:20;;;;;;;1.40;1.30;;;5.50;98.00;;;;;;5052634;28;20766;-74
2021/03/05 05:18:46;;;;;;;2.33;1.30;;;5.50;98.00;;;;;;5052425;28;20459;-75
2021/03/05 05:21:14;;;;;;;1.20;1.10;;;5.50;98.00;;;;;;5050033;28;20458;-74
2021/03/05 05:23:40;;;;;;;1.20;1.00;;;5.50;98.00;;;;;;5051333;28;20454;-74
2021/03/05 05:26:07;;;;;;;1.40;1.13;;;5.50;98.00;;;;;;5050134;28;20485;-75
2021/03/05 05:28:33;;;;;;;1.20;1.10;;;5.50;98.00;;;;;;5052182;28;20962;-74
2021/03/05 05:31:00;;;;;;;1.40;1.30;;;5.50;98.00;;;;;;5049663;28;20495;-74
2021/03/05 05:33:26;;;;;;;1.20;0.90;;;5.50;98.00;;;;;;5050741;28;20462;-74
2021/03/05 05:35:53;;;;;;;1.20;1.00;;;5.50;98.00;;;;;;5049787;28;20524;-74
2021/03/05 05:38:20;;;;;;;1.20;1.00;;;5.50;98.00;;;;;;5052055;28;20464;-74
2021/03/05 05:40:47;;;;;;;1.30;1.13;;;5.50;98.00;;;;;;5049745;28;20459;-74
2021/03/05 05:43:13;;;;;;;1.20;1.00;;;5.40;98.00;;;;;;5052138;28;20466;-74
2021/03/05 05:45:40;;;;;;;1.20;1.00;;;5.40;98.00;;;;;;5049211;28;20466;-74
2021/03/05 05:48:12;;;;;;;1.40;1.20;;;5.30;98.00;;;;;;5051845;28;20471;-74
2021/03/05 05:50:38;;;;;;;1.20;1.10;;;5.30;98.00;;;;;;5050043;28;20463;-74
2021/03/05 05:53:07;;;;;;;1.20;1.00;;;5.40;98.00;;;;;;5051845;28;20466;-74
2021/03/05 05:55:35;;;;;;;1.20;0.90;;;5.40;98.00;;;;;;5049611;28;20470;-74
2021/03/05 05:58:01;;;;;;;1.30;1.23;;;5.40;98.00;;;;;;5051979;28;20489;-73
2021/03/05 06:00:31;;;;;;;1.40;1.10;;;5.50;98.00;;;;;;5049978;28;20520;-74
2021/03/05 06:02:58;;;;;;;1.30;1.20;;;5.50;98.00;;;;;;5051843;28;20466;-74
2021/03/05 06:05:26;;;;;;;1.77;1.27;;;5.50;98.00;;;;;;5049322;28;20940;-74
2021/03/05 06:07:56;;;;;;;1.20;1.00;;;5.50;98.00;;;;;;5051341;28;20463;-74
2021/03/05 06:10:23;;;;;;;1.70;1.30;;;5.50;98.00;;;;;;5049304;28;20486;-74
2021/03/05 06:12:51;;;;;;;1.20;1.07;;;5.50;98.00;;;;;;5051764;28;20897;-74
2021/03/05 06:15:21;;;;;;;1.20;1.10;;;5.40;98.00;;;;;;5049200;28;20455;-74
2021/03/05 06:17:49;;;;;;;1.20;1.10;;;5.50;98.00;;;;;;5051609;28;20450;-74
2021/03/05 06:20:17;;;;;;;1.20;1.00;;;5.60;98.00;;;;;;5049111;28;20542;-74
2021/03/05 06:22:46;;;;;;;1.20;1.00;;;5.60;98.00;;;;;;5051337;28;20459;-74
2021/03/05 06:25:13;;;;;;;2.67;1.60;;;5.60;98.00;;;;;;5048938;28;20466;-74
2021/03/05 06:27:40;;;;;;;1.30;1.10;;;5.60;98.00;;;;;;5051455;28;20452;-74
2021/03/05 06:30:08;;;;;;;1.20;1.10;;;5.60;98.00;;;;;;5048802;28;20927;-74
2021/03/05 06:32:37;;;;;;;1.20;0.90;;;5.60;98.00;;;;;;5051241;28;20476;-74
2021/03/05 06:35:06;;;;;;;1.40;1.30;;;5.60;98.00;;;;;;5048878;28;20498;-74
2021/03/05 06:37:46;;;;;;;1.20;1.00;;;5.60;98.00;;;;;;5050888;28;20496;-74
2021/03/05 06:40:14;;;;;;;1.20;1.10;;;5.60;98.00;;;;;;5049330;28;20525;-74
2021/03/05 06:42:50;;;;;;;1.20;1.10;;;5.60;98.00;;;;;;5051458;28;20956;-74
2021/03/05 06:45:20;;;;;;;1.50;1.37;;;5.60;98.00;;;;;;5048779;28;20458;-74
2021/03/05 06:48:01;;;;;;;4.17;1.50;;;5.60;98.00;;;;;;5051278;28;20466;-74
2021/03/05 06:50:27;;;;;;;1.20;1.00;;;5.60;98.00;;;;;;5048866;28;21024;-74
2021/03/05 06:52:54;;;;;;;1.20;1.00;;;5.60;98.00;;;;;;5051309;28;20462;-74
2021/03/05 06:55:21;;;;;;;1.60;1.20;;;5.60;98.00;;;;;;5048851;28;20462;-74
2021/03/05 06:57:49;;;;;;;1.40;1.20;;;5.70;98.00;;;;;;5052247;28;20446;-74
2021/03/05 07:00:18;;;;;;;1.77;1.63;;;5.70;98.00;;;;;;5052754;28;20463;-74
2021/03/05 07:02:45;;;;;;;1.20;1.03;;;5.60;98.00;;;;;;5054903;28;20513;-74
2021/03/05 07:05:12;;;;;;;1.20;1.20;;;5.50;98.00;;;;;;5053023;28;20456;-74
2021/03/05 07:07:43;;;;;;;1.50;1.23;;;5.40;98.00;;;;;;5055164;28;20499;-73
2021/03/05 07:10:11;;;;;;;1.73;1.10;;;5.30;98.00;;;;;;5052437;28;20493;-72
2021/03/05 07:12:38;;;;;;;1.20;1.00;;;5.50;98.00;;;;;;5054982;28;20471;-73
2021/03/05 07:15:07;;;;;;;3.10;1.90;;;5.50;98.00;;;;;;5052681;28;20486;-74
2021/03/05 07:17:34;;;;;;;1.40;1.10;;;5.60;98.00;;;;;;5054936;28;20463;-74
2021/03/05 07:20:01;;;;;;;1.20;1.07;;;5.70;98.00;;;;;;5052604;28;20460;-74
2021/03/05 07:22:29;;;;;;;1.20;1.10;;;5.70;98.00;;;;;;5054752;28;20462;-74
2021/03/05 07:24:56;;;;;;;1.87;1.00;;;5.70;98.00;;;;;;5052446;28;20470;-74
2021/03/05 07:27:28;;;;;;;1.20;1.10;;;5.70;98.00;;;;;;5054550;28;20588;-74
2021/03/05 07:29:57;;;;;;;1.20;1.00;;;5.70;98.00;;;;;;5052309;28;20478;-74
2021/03/05 07:32:35;;;;;;;1.20;1.00;;;5.70;98.00;;;;;;5053652;28;20456;-74
2021/03/05 07:35:05;;;;;;;1.83;1.30;;;5.70;98.00;;;;;;5052660;28;20480;-73
2021/03/05 07:37:36;;;;;;;5.33;1.53;;;5.50;98.00;;;;;;5054782;28;20474;-73
2021/03/05 07:40:05;;;;;;;1.20;1.00;;;5.50;98.00;;;;;;5052310;28;20465;-72
2021/03/05 07:42:34;;;;;;;1.20;1.00;;;5.50;98.00;;;;;;5053704;28;20548;-72
2021/03/05 07:45:03;;;;;;;2.30;1.30;;;5.60;98.00;;;;;;5052225;28;20458;-72
2021/03/05 07:47:31;;;;;;;5.77;2.13;;;5.50;98.00;;;;;;5054593;28;20493;-72
2021/03/05 07:49:59;;;;;;;1.63;1.37;;;5.50;98.00;;;;;;5052145;28;20485;-72
2021/03/05 07:52:27;;;;;;;1.20;1.00;;;5.40;98.00;;;;;;5054500;28;20474;-72
2021/03/05 07:54:54;;;;;;;1.73;1.07;;;5.30;98.00;;;;;;5051811;28;20486;-72
2021/03/05 07:57:51;;;;;;;1.30;1.10;;;5.20;98.00;;;;;;5054282;28;20462;-73
2021/03/05 08:00:39;;;;;;;2.60;1.10;;;5.20;98.00;;;;;;5051702;28;20875;-72
2021/03/05 08:03:05;;;;;;;1.20;0.90;;;5.10;98.00;;;;;;5052952;28;20470;-72
2021/03/05 08:05:40;;;;;;;1.53;1.50;;;5.10;98.00;;;;;;5051714;28;20493;-73
2021/03/05 08:08:13;;;;;;;1.20;0.90;;;5.10;98.00;;;;;;5053525;28;20485;-73
2021/03/05 08:10:42;;;;;;;2.27;1.27;;;5.00;98.00;;;;;;5051490;28;20526;-72
2021/03/05 08:13:46;;;;;;;1.20;1.10;;;4.90;98.00;;;;;;5053827;28;20466;-73
2021/03/05 08:16:46;;;;;;;2.47;1.20;;;5.10;98.00;;;;;;5051381;28;20511;-72
2021/03/05 08:19:45;;;;;;;1.70;1.20;;;5.20;98.00;;;;;;5052487;28;20468;-72
2021/03/05 08:22:12;;;;;;;1.20;1.00;;;5.20;98.00;;;;;;5047367;28;20460;-72
2021/03/05 08:24:41;;;;;;;1.47;1.40;;;5.30;98.00;;;;;;5050677;28;21209;-74
2021/03/05 08:27:13;;;;;;;1.20;1.00;;;5.50;98.00;;;;;;5052081;28;20543;-75
2021/03/05 08:29:59;;;;;;;1.20;1.10;;;5.60;98.00;;;;;;5051110;28;21063;-75
2021/03/05 08:32:56;;;;;;;2.43;1.73;;;5.70;98.00;;;;;;5053405;28;20538;-73
2021/03/05 08:35:47;;;;;;;1.57;1.30;;;5.70;98.00;;;;;;4989140;28;20544;-73
2021/03/05 08:38:23;;;;;;;1.53;1.30;;;5.80;98.00;;;;;;5049370;28;20474;-73
2021/03/05 08:40:56;;;;;;;2.50;1.50;;;5.80;98.00;;;;;;5049942;28;20554;-73
2021/03/05 08:43:31;;;;;;;1.77;1.40;;;5.90;98.00;;;;;;5052960;28;20457;-72
2021/03/05 08:45:59;;;;;;;2.47;2.33;;;5.90;98.00;;;;;;5050167;28;20505;-73
2021/03/05 08:48:33;;;;;;;1.30;1.20;;;5.90;98.00;;;;;;5052868;28;20792;-73
2021/03/05 08:51:09;;;;;;;1.30;1.23;;;5.80;98.00;;;;;;5049317;28;20491;-73
2021/03/05 08:53:42;;;;;;;1.30;1.20;;;6.00;98.00;;;;;;5053073;28;20803;-73
2021/03/05 08:56:12;;;;;;;1.20;1.10;;;6.10;98.00;;;;;;5050481;28;20462;-73
2021/03/05 08:58:42;;;;;;;1.47;1.40;;;6.10;98.00;;;;;;5052996;28;20471;-73
2021/03/05 09:01:26;;;;;;;1.20;1.00;;;6.10;98.00;;;;;;5050660;28;20486;-73
2021/03/05 09:03:53;;;;;;;1.40;1.37;;;6.00;98.00;;;;;;5051873;28;20493;-73
2021/03/05 09:06:19;;;;;;;1.57;1.33;;;6.00;98.00;;;;;;5048684;28;20455;-73
2021/03/05 09:08:46;;;;;;;1.93;1.40;;;6.10;98.00;;;;;;5052799;28;20549;-72
2021/03/05 09:11:15;;;;;;;1.30;1.20;;;6.10;98.00;;;;;;5050177;28;20462;-72
2021/03/05 09:13:42;;;;;;;1.73;1.57;;;6.20;98.00;;;;;;5052628;28;20937;-73
2021/03/05 09:16:09;;;;;;;1.40;1.30;;;6.20;98.00;;;;;;5050214;28;20849;-73
2021/03/05 09:18:38;;;;;;;1.93;1.60;;;6.20;98.00;;;;;;5052647;28;20871;-73
2021/03/05 09:21:07;;;;;;;1.20;1.20;;;6.20;98.00;;;;;;5049470;28;20510;-73
2021/03/05 09:23:36;;;;;;;1.40;1.20;;;6.20;98.00;;;;;;5052301;28;20998;-73
2021/03/05 09:26:05;;;;;;;1.30;1.10;;;6.30;98.00;;;;;;5050139;28;20505;-73
2021/03/05 09:28:40;;;;;;;3.20;1.77;;;6.30;98.00;;;;;;5052559;28;20939;-73
2021/03/05 09:31:07;;;;;;;1.20;1.17;;;6.30;98.00;;;;;;5050144;28;20466;-73
2021/03/05 09:33:35;;;;;;;2.33;1.40;;;6.30;98.00;;;;;;5052484;28;20546;-73
2021/03/05 09:36:04;;;;;;;1.20;1.00;;;6.50;98.00;;;;;;5050023;28;20486;-73
2021/03/05 09:38:31;;;;;;;1.20;1.07;;;6.50;98.00;;;;;;5052165;28;20829;-73
2021/03/05 09:41:16;;;;;;;2.40;2.30;;;6.50;98.00;;;;;;5049802;28;20465;-72
2021/03/05 09:43:45;;;;;;;1.40;1.13;;;6.50;98.00;;;;;;5051479;28;20471;-72
2021/03/05 09:46:20;;;;;;;2.27;2.10;;;6.60;98.00;;;;;;5049539;28;20509;-72
2021/03/05 09:48:46;;;;;;;1.20;1.00;;;6.60;98.00;;;;;;5052024;28;20536;-72
2021/03/05 09:51:13;;;;;;;1.23;1.13;;;6.60;98.00;;;;;;5054309;28;20773;-72
2021/03/05 09:53:50;;;;;;;1.30;1.10;;;6.60;98.00;;;;;;5071935;28;20471;-72
2021/03/05 09:56:16;;;;;;;1.73;1.30;;;6.60;98.00;;;;;;5068798;28;20453;-72
2021/03/05 09:58:54;;;;;;;1.70;1.13;;;6.60;98.00;;;;;;5071670;28;20445;-72
2021/03/05 10:01:22;;;;;;;1.60;1.20;;;6.60;98.00;;;;;;5069436;28;20485;-72
2021/03/05 10:03:55;;;;;;;1.63;1.33;;;6.50;98.00;;;;;;5071573;28;20996;-72
2021/03/05 10:06:39;;;;;;;1.30;1.30;;;6.30;98.00;;;;;;5069017;28;20565;-72
2021/03/05 10:09:07;;;;;;;1.30;1.17;;;6.30;98.00;;;;;;5071025;28;20474;-72
2021/03/05 10:11:36;;;;;;;1.20;1.10;;;6.20;98.00;;;;;;5068961;28;20459;-72
2021/03/05 10:14:05;;;;;;;1.20;0.90;;;6.20;98.00;;;;;;5070546;28;20463;-72
2021/03/05 10:16:36;;;;;;;1.40;1.33;;;6.30;98.00;;;;;;5068315;28;20469;-72
2021/03/05 10:19:06;;;;;;;1.33;1.33;;;6.50;98.00;;;;;;5071517;28;20862;-72
2021/03/05 10:21:34;;;;;;;1.20;1.10;;;6.50;98.00;;;;;;5069152;28;20455;-73
2021/03/05 10:24:06;;;;;;;1.77;1.63;;;6.20;98.00;;;;;;5071644;28;20486;-73
2021/03/05 10:26:34;;;;;;;1.40;1.17;;;6.40;98.00;;;;;;5069076;28;20463;-73
2021/03/05 10:29:03;;;;;;;1.30;1.13;;;6.40;98.00;;;;;;5070869;28;20544;-73
2021/03/05 10:31:46;;;;;;;2.07;1.60;;;6.40;98.00;;;;;;5068718;28;20456;-73
2021/03/05 10:34:26;;;;;;;1.60;1.10;;;6.20;98.00;;;;;;5070924;28;20513;-72
2021/03/05 10:36:55;;;;;;;1.20;1.00;;;6.20;98.00;;;;;;5071467;28;20468;-72
2021/03/05 10:39:25;;;;;;;1.50;1.40;;;6.20;98.00;;;;;;5071329;28;20454;-73
2021/03/05 10:42:02;;;;;;;1.20;1.00;;;6.30;98.00;;;;;;5071178;28;20467;-72
2021/03/05 10:44:31;;;;;;;1.60;1.37;;;6.40;98.00;;;;;;5068914;28;20983;-73
2021/03/05 10:47:00;;;;;;;1.70;1.67;;;6.40;98.00;;;;;;5071263;28;20469;-73
2021/03/05 10:49:27;;;;;;;1.70;1.10;;;6.50;98.00;;;;;;5068282;28;20832;-72
2021/03/05 10:51:54;;;;;;;1.20;1.00;;;6.50;98.00;;;;;;5070446;28;20491;-72
2021/03/05 10:54:21;;;;;;;1.20;1.00;;;6.60;98.00;;;;;;5070405;28;20950;-72
2021/03/05 10:56:48;;;;;;;1.93;1.77;;;6.50;98.00;;;;;;5068218;28;20454;-73
2021/03/05 10:59:16;;;;;;;1.67;1.57;;;6.40;98.00;;;;;;5070668;28;20807;-72
2021/03/05 11:01:43;;;;;;;1.37;1.10;;;6.40;98.00;;;;;;5068021;28;20459;-73
2021/03/05 11:04:10;;;;;;;1.50;1.30;;;6.40;98.00;;;;;;5085719;28;20712;-73
2021/03/05 11:06:37;;;;;;;1.60;1.33;;;6.40;98.00;;;;;;5068376;28;20943;-73
2021/03/05 11:09:06;;;;;;;1.77;1.43;;;6.40;98.00;;;;;;5070574;28;20954;-74
2021/03/05 11:11:32;;;;;;;1.20;1.10;;;6.40;98.00;;;;;;5068278;28;20459;-73
2021/03/05 11:14:00;;;;;;;1.30;1.20;;;6.40;98.00;;;;;;5070408;28;20493;-72
2021/03/05 11:16:27;;;;;;;3.73;1.77;;;6.30;98.00;;;;;;5067982;28;20458;-72
2021/03/05 11:18:54;;;;;;;1.20;0.90;;;6.20;98.00;;;;;;5070558;28;20505;-73
2021/03/05 11:21:22;;;;;;;1.60;1.30;;;6.30;98.00;;;;;;5067113;28;20798;-73
2021/03/05 11:23:51;;;;;;;1.20;1.00;;;6.20;98.00;;;;;;5070167;28;20460;-73
2021/03/05 11:26:18;;;;;;;1.20;1.10;;;5.90;98.00;;;;;;5068143;28;20457;-73
2021/03/05 11:28:46;;;;;;;1.57;1.17;;;5.80;98.00;;;;;;5070720;28;21007;-72
2021/03/05 11:31:13;;;;;;;2.80;1.30;;;5.80;98.00;;;;;;5090301;28;20453;-71
2021/03/05 11:33:44;;;;;;;1.20;1.10;;;5.90;98.00;;;;;;5072804;28;20497;-71
2021/03/05 11:36:11;;;;;;;1.50;1.40;;;5.80;98.00;;;;;;5067993;28;20468;-72
2021/03/05 11:38:38;;;;;;;1.50;1.20;;;6.00;98.00;;;;;;5070553;28;20506;-72
2021/03/05 11:41:05;;;;;;;1.20;1.00;;;6.10;98.00;;;;;;5067970;28;20459;-72
2021/03/05 11:43:32;;;;;;;1.90;1.50;;;6.30;98.00;;;;;;5070531;28;20463;-72
2021/03/05 11:45:59;;;;;;;1.40;1.20;;;6.20;98.00;;;;;;5071582;28;20896;-72
2021/03/05 11:48:26;;;;;;;1.93;1.10;;;6.20;98.00;;;;;;5073902;28;20482;-72
2021/03/05 11:50:53;;;;;;;1.20;0.90;;;6.20;98.00;;;;;;5071022;28;20530;-72
2021/03/05 11:53:19;;;;;;;1.20;1.10;;;6.10;98.00;;;;;;5073848;28;20455;-72
2021/03/05 11:55:46;;;;;;;2.60;1.47;;;6.10;98.00;;;;;;5071374;28;20881;-72
2021/03/05 11:58:13;;;;;;;1.20;1.00;;;6.00;98.00;;;;;;5073823;28;20939;-72
2021/03/05 12:00:39;;;;;;;1.50;1.20;;;5.90;98.00;;;;;;5071160;28;20449;-72
2021/03/05 12:03:06;;;;;;;1.70;1.30;;;5.90;98.00;;;;;;5073904;28;20821;-73
2021/03/05 12:05:34;;;;;;;1.20;1.00;;;5.90;98.00;;;;;;5070670;28;20454;-72
2021/03/05 12:08:00;;;;;;;1.40;1.10;;;5.90;98.00;;;;;;5073533;28;20456;-73
2021/03/05 12:10:27;;;;;;;1.27;1.07;;;5.90;98.00;;;;;;5070844;28;20493;-72
2021/03/05 12:12:54;;;;;;;1.50;1.40;;;5.90;98.00;;;;;;5073436;28;20549;-73
2021/03/05 12:15:21;;;;;;;1.20;1.10;;;6.00;98.00;;;;;;5070882;28;20498;-74
2021/03/05 12:17:47;;;;;;;1.37;1.17;;;6.00;98.00;;;;;;5073264;28;20825;-74
2021/03/05 12:20:15;;;;;;;1.70;1.50;;;5.90;98.00;;;;;;5070823;28;20463;-73
2021/03/05 12:22:42;;;;;;;1.30;1.23;;;5.80;98.00;;;;;;5073322;28;20542;-72
2021/03/05 12:25:10;;;;;;;1.50;1.47;;;5.80;98.00;;;;;;5086251;28;20459;-73
2021/03/05 12:27:36;;;;;;;1.30;1.03;;;5.90;98.00;;;;;;5088855;28;20472;-71
2021/03/05 12:30:07;;;;;;;1.20;0.97;;;6.10;98.00;;;;;;5071068;28;20618;-71
2021/03/05 12:32:33;;;;;;;1.70;1.30;;;6.20;98.00;;;;;;5088985;28;20450;-71
2021/03/05 12:35:01;;;;;;;1.30;1.27;;;6.30;98.00;;;;;;5071220;28;20464;-71
2021/03/05 12:37:28;;;;;;;2.90;1.53;;;6.20;98.00;;;;;;5073113;28;20466;-71
2021/03/05 12:39:54;;;;;;;1.57;1.43;;;6.30;98.00;;;;;;5070898;28;21210;-71
2021/03/05 12:42:21;;;;;;;1.77;1.47;;;6.20;98.00;;;;;;5072392;28;20541;-71
2021/03/05 12:44:48;;;;;;;4.23;2.00;;;6.20;98.00;;;;;;5070610;28;20908;-70
2021/03/05 12:47:15;;;;;;;3.10;1.40;;;6.10;98.00;;;;;;5072646;28;20495;-69
2021/03/05 12:49:42;;;;;;;2.30;1.30;;;6.20;98.00;;;;;;5070305;28;20993;-70
2021/03/05 12:52:09;;;;;;;1.30;1.30;;;6.40;98.00;;;;;;5072518;28;20558;-70
2021/03/05 12:54:35;;;;;;;1.20;1.00;;;6.50;98.00;;;;;;5072457;28;20473;-70
2021/03/05 12:57:02;;;;;;;3.00;1.83;;;6.60;98.00;;;;;;5070323;28;20506;-69
2021/03/05 12:59:31;;;;;;;1.70;1.33;;;6.50;98.00;;;;;;5072609;28;20461;-70
2021/03/05 13:01:58;;;;;;;2.60;2.03;;;6.60;98.00;;;;;;5068750;28;20460;-69
2021/03/05 13:04:25;;;;;;;1.40;1.10;;;6.70;98.00;;;;;;5072034;28;20813;-69
2021/03/05 13:06:52;;;;;;;1.20;1.00;;;6.90;98.00;;;;;;5084950;28;21003;-69
2021/03/05 13:09:18;;;;;;;1.73;1.53;;;7.00;98.00;;;;;;5071987;28;20531;-69